WAT1495 KSAN-KSFO
Flight info
| Callsign | WAT1495 |
|---|---|
| Flight time | 1h 1m |
| Altitude | 38000 |
| Route | PADRZ2 IKAYE RIZIN SPLNT STOKD SERFR SERFR4 |
| Aircraft | A319/M-SDE3FGHIRWY/LB1 |
Departure
| Time | 2026-04-20 00:50 |
|---|---|
| Airport | San Diego International Airport (KSAN) |
Arrival
| Time | 2026-04-20 01:51 |
|---|---|
| Airport | San Francisco International Airport (KSFO) |
| Time | Latitude | Longitude | Altitude | Speed | Heading |
|---|---|---|---|---|---|
| 2026-04-20 00:29 | 32.73307 | -117.20077 | 22 ft | 0 kts | 275° |
| 2026-04-20 00:40 | 32.73306 | -117.20070 | 22 ft | 2 kts | 275° |
| 2026-04-20 00:40 | 32.73305 | -117.20052 | 22 ft | 2 kts | 275° |
| 2026-04-20 00:40 | 32.73304 | -117.20035 | 22 ft | 2 kts | 275° |
| 2026-04-20 00:41 | 32.73303 | -117.20018 | 22 ft | 2 kts | 274° |
| 2026-04-20 00:41 | 32.73296 | -117.20003 | 22 ft | 2 kts | 330° |
| 2026-04-20 00:41 | 32.73285 | -117.20001 | 22 ft | 0 kts | 8° |
| 2026-04-20 00:41 | 32.73279 | -117.20003 | 22 ft | 1 kts | 14° |
| 2026-04-20 00:42 | 32.73277 | -117.20003 | 22 ft | 0 kts | 13° |
| 2026-04-20 00:42 | 32.73278 | -117.20003 | 22 ft | 0 kts | 13° |
| 2026-04-20 00:43 | 32.73293 | -117.19999 | 22 ft | 3 kts | 13° |
| 2026-04-20 00:43 | 32.73321 | -117.19991 | 22 ft | 5 kts | 13° |
| 2026-04-20 00:43 | 32.73365 | -117.19979 | 22 ft | 8 kts | 13° |
| 2026-04-20 00:43 | 32.73428 | -117.19962 | 22 ft | 9 kts | 12° |
| 2026-04-20 00:44 | 32.73475 | -117.19907 | 22 ft | 11 kts | 87° |
| 2026-04-20 00:44 | 32.73459 | -117.19810 | 22 ft | 12 kts | 105° |
| 2026-04-20 00:44 | 32.73434 | -117.19713 | 23 ft | 12 kts | 107° |
| 2026-04-20 00:44 | 32.73408 | -117.19606 | 24 ft | 14 kts | 106° |
| 2026-04-20 00:45 | 32.73379 | -117.19486 | 25 ft | 15 kts | 106° |
| 2026-04-20 00:45 | 32.73349 | -117.19362 | 25 ft | 16 kts | 106° |
| 2026-04-20 00:45 | 32.73317 | -117.19229 | 25 ft | 17 kts | 106° |
| 2026-04-20 00:45 | 32.73283 | -117.19090 | 24 ft | 18 kts | 107° |
| 2026-04-20 00:46 | 32.73247 | -117.18943 | 24 ft | 19 kts | 106° |
| 2026-04-20 00:46 | 32.73210 | -117.18790 | 23 ft | 19 kts | 106° |
| 2026-04-20 00:46 | 32.73171 | -117.18630 | 22 ft | 20 kts | 105° |
| 2026-04-20 00:46 | 32.73134 | -117.18473 | 22 ft | 17 kts | 106° |
| 2026-04-20 00:47 | 32.73098 | -117.18329 | 22 ft | 18 kts | 106° |
| 2026-04-20 00:47 | 32.73063 | -117.18182 | 22 ft | 18 kts | 105° |
| 2026-04-20 00:47 | 32.73026 | -117.18031 | 22 ft | 19 kts | 106° |
| 2026-04-20 00:47 | 32.72989 | -117.17883 | 24 ft | 17 kts | 106° |
| 2026-04-20 00:48 | 32.72958 | -117.17749 | 26 ft | 15 kts | 105° |
| 2026-04-20 00:48 | 32.72955 | -117.17684 | 28 ft | 0 kts | 77° |
| 2026-04-20 00:49 | 32.72968 | -117.17635 | 28 ft | 7 kts | 56° |
| 2026-04-20 00:49 | 32.73018 | -117.17615 | 29 ft | 8 kts | 333° |
| 2026-04-20 00:49 | 32.73046 | -117.17690 | 28 ft | 16 kts | 284° |
| 2026-04-20 00:49 | 32.73154 | -117.18147 | 23 ft | 97 kts | 286° |
| 2026-04-20 00:50 | 32.73397 | -117.19179 | 76 ft | 155 kts | 284° |
| 2026-04-20 00:50 | 32.73708 | -117.20448 | 648 ft | 167 kts | 285° |
| 2026-04-20 00:50 | 32.74214 | -117.21768 | 1220 ft | 189 kts | 302° |
| 2026-04-20 00:50 | 32.75025 | -117.23093 | 1887 ft | 208 kts | 306° |
| 2026-04-20 00:51 | 32.75933 | -117.24543 | 2606 ft | 229 kts | 306° |
| 2026-04-20 00:51 | 32.76889 | -117.26079 | 3431 ft | 244 kts | 306° |
| 2026-04-20 00:51 | 32.77855 | -117.27801 | 4353 ft | 256 kts | 301° |
| 2026-04-20 00:51 | 32.78801 | -117.29612 | 5314 ft | 266 kts | 301° |
| 2026-04-20 00:52 | 32.79781 | -117.31480 | 6307 ft | 274 kts | 301° |
| 2026-04-20 00:52 | 32.80893 | -117.33345 | 7336 ft | 281 kts | 306° |
| 2026-04-20 00:52 | 32.82088 | -117.35193 | 8294 ft | 290 kts | 307° |
| 2026-04-20 00:52 | 32.83346 | -117.37054 | 9214 ft | 295 kts | 307° |
| 2026-04-20 00:53 | 32.84623 | -117.38950 | 10107 ft | 298 kts | 307° |
| 2026-04-20 00:53 | 32.85891 | -117.40915 | 10875 ft | 305 kts | 305° |
| 2026-04-20 00:53 | 32.87181 | -117.42960 | 11673 ft | 311 kts | 305° |
| 2026-04-20 00:53 | 32.88477 | -117.45004 | 12487 ft | 314 kts | 305° |
| 2026-04-20 00:54 | 32.89794 | -117.47069 | 13285 ft | 318 kts | 306° |
| 2026-04-20 00:54 | 32.91132 | -117.49157 | 14083 ft | 321 kts | 306° |
| 2026-04-20 00:54 | 32.92489 | -117.51271 | 14633 ft | 324 kts | 306° |
| 2026-04-20 00:54 | 32.93865 | -117.53410 | 14928 ft | 326 kts | 306° |
| 2026-04-20 00:55 | 32.95250 | -117.55567 | 14976 ft | 332 kts | 306° |
| 2026-04-20 00:55 | 32.96713 | -117.57852 | 14970 ft | 361 kts | 306° |
| 2026-04-20 00:55 | 32.98280 | -117.60301 | 14951 ft | 387 kts | 306° |
| 2026-04-20 00:55 | 32.99948 | -117.62906 | 14958 ft | 401 kts | 306° |
| 2026-04-20 00:56 | 33.01637 | -117.65543 | 14960 ft | 403 kts | 305° |
| 2026-04-20 00:56 | 33.03345 | -117.68211 | 14947 ft | 403 kts | 306° |
| 2026-04-20 00:56 | 33.05085 | -117.70841 | 15110 ft | 410 kts | 308° |
| 2026-04-20 00:56 | 33.07021 | -117.73378 | 15765 ft | 413 kts | 313° |
| 2026-04-20 00:57 | 33.09100 | -117.75722 | 16517 ft | 415 kts | 317° |
| 2026-04-20 00:57 | 33.11276 | -117.77964 | 17150 ft | 417 kts | 318° |
| 2026-04-20 00:57 | 33.13524 | -117.80234 | 17748 ft | 421 kts | 318° |
| 2026-04-20 00:57 | 33.15740 | -117.82474 | 18328 ft | 424 kts | 318° |
| 2026-04-20 00:58 | 33.18002 | -117.84767 | 18892 ft | 427 kts | 317° |
| 2026-04-20 00:58 | 33.20185 | -117.87128 | 19451 ft | 428 kts | 314° |
| 2026-04-20 00:58 | 33.22311 | -117.89620 | 20006 ft | 429 kts | 313° |
| 2026-04-20 00:58 | 33.24431 | -117.92146 | 20578 ft | 431 kts | 313° |
| 2026-04-20 00:59 | 33.26562 | -117.94695 | 21121 ft | 433 kts | 313° |
| 2026-04-20 00:59 | 33.28675 | -117.97226 | 21671 ft | 435 kts | 313° |
| 2026-04-20 00:59 | 33.30797 | -117.99769 | 22220 ft | 436 kts | 313° |
| 2026-04-20 00:59 | 33.32942 | -118.02334 | 22736 ft | 438 kts | 313° |
| 2026-04-20 01:00 | 33.35123 | -118.04942 | 23239 ft | 440 kts | 313° |
| 2026-04-20 01:00 | 33.37268 | -118.07511 | 23713 ft | 442 kts | 313° |
| 2026-04-20 01:00 | 33.39468 | -118.10148 | 24164 ft | 445 kts | 313° |
| 2026-04-20 01:00 | 33.41636 | -118.12745 | 24621 ft | 448 kts | 313° |
| 2026-04-20 01:01 | 33.43837 | -118.15385 | 25080 ft | 450 kts | 313° |
| 2026-04-20 01:01 | 33.46040 | -118.18032 | 25528 ft | 451 kts | 313° |
| 2026-04-20 01:01 | 33.48260 | -118.20700 | 25947 ft | 453 kts | 313° |
| 2026-04-20 01:01 | 33.50507 | -118.23402 | 26363 ft | 455 kts | 313° |
| 2026-04-20 01:02 | 33.52723 | -118.26069 | 26756 ft | 456 kts | 313° |
| 2026-04-20 01:02 | 33.54967 | -118.28770 | 27141 ft | 457 kts | 313° |
| 2026-04-20 01:02 | 33.57199 | -118.31459 | 27508 ft | 458 kts | 313° |
| 2026-04-20 01:02 | 33.59453 | -118.34178 | 27820 ft | 460 kts | 313° |
| 2026-04-20 01:03 | 33.61715 | -118.36910 | 28120 ft | 462 kts | 313° |
| 2026-04-20 01:03 | 33.63985 | -118.39651 | 28410 ft | 463 kts | 313° |
| 2026-04-20 01:03 | 33.66222 | -118.42355 | 28695 ft | 464 kts | 313° |
| 2026-04-20 01:03 | 33.68498 | -118.45108 | 28966 ft | 465 kts | 313° |
| 2026-04-20 01:04 | 33.70771 | -118.47859 | 29230 ft | 466 kts | 313° |
| 2026-04-20 01:04 | 33.73059 | -118.50633 | 29451 ft | 467 kts | 313° |
| 2026-04-20 01:04 | 33.75348 | -118.53411 | 29666 ft | 468 kts | 313° |
| 2026-04-20 01:04 | 33.77635 | -118.56187 | 29909 ft | 467 kts | 313° |
| 2026-04-20 01:05 | 33.79919 | -118.58960 | 30200 ft | 466 kts | 313° |
| 2026-04-20 01:05 | 33.82166 | -118.61691 | 30616 ft | 461 kts | 313° |
| 2026-04-20 01:05 | 33.84385 | -118.64389 | 31330 ft | 451 kts | 313° |
| 2026-04-20 01:05 | 33.86587 | -118.67070 | 31946 ft | 444 kts | 313° |
| 2026-04-20 01:06 | 33.88715 | -118.69665 | 32373 ft | 441 kts | 313° |
| 2026-04-20 01:06 | 33.90863 | -118.72285 | 32732 ft | 440 kts | 313° |
| 2026-04-20 01:06 | 33.93029 | -118.74929 | 33076 ft | 439 kts | 313° |
| 2026-04-20 01:06 | 33.95139 | -118.77505 | 33417 ft | 438 kts | 313° |
| 2026-04-20 01:07 | 33.97273 | -118.80115 | 33784 ft | 436 kts | 313° |
| 2026-04-20 01:07 | 33.99386 | -118.82700 | 34111 ft | 434 kts | 313° |
| 2026-04-20 01:07 | 34.01517 | -118.85307 | 34376 ft | 433 kts | 312° |
| 2026-04-20 01:07 | 34.03622 | -118.87887 | 34611 ft | 433 kts | 312° |
| 2026-04-20 01:08 | 34.05734 | -118.90476 | 34848 ft | 433 kts | 312° |
| 2026-04-20 01:08 | 34.07835 | -118.93056 | 35067 ft | 433 kts | 312° |
| 2026-04-20 01:08 | 34.09939 | -118.95641 | 35284 ft | 433 kts | 311° |
| 2026-04-20 01:08 | 34.11982 | -118.98309 | 35487 ft | 433 kts | 309° |
| 2026-04-20 01:09 | 34.13895 | -119.01073 | 35687 ft | 432 kts | 306° |
| 2026-04-20 01:09 | 34.15708 | -119.03986 | 35913 ft | 431 kts | 303° |
| 2026-04-20 01:09 | 34.17374 | -119.06970 | 36157 ft | 430 kts | 300° |
| 2026-04-20 01:09 | 34.18950 | -119.09992 | 36387 ft | 429 kts | 300° |
| 2026-04-20 01:10 | 34.20539 | -119.13072 | 36610 ft | 430 kts | 300° |
| 2026-04-20 01:10 | 34.23665 | -119.19151 | 37039 ft | 429 kts | 300° |
| 2026-04-20 01:10 | 34.25240 | -119.22216 | 37257 ft | 429 kts | 299° |
| 2026-04-20 01:11 | 34.26809 | -119.25271 | 37482 ft | 428 kts | 299° |
| 2026-04-20 01:11 | 34.28385 | -119.28340 | 37680 ft | 428 kts | 299° |
| 2026-04-20 01:11 | 34.29952 | -119.31393 | 37850 ft | 428 kts | 299° |
| 2026-04-20 01:11 | 34.31495 | -119.34406 | 37927 ft | 428 kts | 299° |
| 2026-04-20 01:12 | 34.34635 | -119.40546 | 37954 ft | 428 kts | 299° |
| 2026-04-20 01:12 | 34.37744 | -119.46632 | 37955 ft | 428 kts | 300° |
| 2026-04-20 01:13 | 34.41149 | -119.52567 | 37957 ft | 430 kts | 305° |
| 2026-04-20 01:13 | 34.45039 | -119.58040 | 37963 ft | 431 kts | 311° |
| 2026-04-20 01:14 | 34.49213 | -119.63208 | 37961 ft | 431 kts | 311° |
| 2026-04-20 01:14 | 34.53420 | -119.68379 | 37979 ft | 430 kts | 311° |
| 2026-04-20 01:15 | 34.57598 | -119.73527 | 37993 ft | 430 kts | 310° |
| 2026-04-20 01:15 | 34.61783 | -119.78696 | 37980 ft | 430 kts | 311° |
| 2026-04-20 01:16 | 34.65971 | -119.83875 | 37977 ft | 429 kts | 311° |
| 2026-04-20 01:16 | 34.70135 | -119.89032 | 37972 ft | 430 kts | 311° |
| 2026-04-20 01:17 | 34.74314 | -119.94216 | 37973 ft | 429 kts | 311° |
| 2026-04-20 01:17 | 34.78473 | -119.99383 | 37973 ft | 428 kts | 311° |
| 2026-04-20 01:18 | 34.82638 | -120.04565 | 37986 ft | 428 kts | 311° |
| 2026-04-20 01:18 | 34.86803 | -120.09757 | 37985 ft | 428 kts | 310° |
| 2026-04-20 01:19 | 34.90929 | -120.14909 | 37977 ft | 427 kts | 310° |
| 2026-04-20 01:19 | 34.95088 | -120.20109 | 37977 ft | 426 kts | 310° |
| 2026-04-20 01:20 | 34.99191 | -120.25246 | 37959 ft | 426 kts | 310° |
| 2026-04-20 01:20 | 35.03312 | -120.30415 | 37956 ft | 426 kts | 310° |
| 2026-04-20 01:21 | 35.07439 | -120.35599 | 37957 ft | 426 kts | 310° |
| 2026-04-20 01:21 | 35.11742 | -120.40604 | 37947 ft | 428 kts | 313° |
| 2026-04-20 01:22 | 35.16126 | -120.45508 | 37953 ft | 427 kts | 314° |
| 2026-04-20 01:22 | 35.20506 | -120.50412 | 37945 ft | 427 kts | 313° |
| 2026-04-20 01:23 | 35.24872 | -120.55313 | 37942 ft | 427 kts | 313° |
| 2026-04-20 01:23 | 35.29254 | -120.60243 | 37943 ft | 426 kts | 313° |
| 2026-04-20 01:24 | 35.33588 | -120.65125 | 37937 ft | 426 kts | 313° |
| 2026-04-20 01:24 | 35.37941 | -120.70035 | 37954 ft | 425 kts | 313° |
| 2026-04-20 01:25 | 35.42297 | -120.74960 | 37946 ft | 426 kts | 313° |
| 2026-04-20 01:25 | 35.46649 | -120.79882 | 37945 ft | 425 kts | 313° |
| 2026-04-20 01:26 | 35.51232 | -120.84484 | 37934 ft | 428 kts | 317° |
| 2026-04-20 01:26 | 35.55974 | -120.88886 | 37928 ft | 429 kts | 318° |
| 2026-04-20 01:27 | 35.60726 | -120.93293 | 37924 ft | 429 kts | 318° |
| 2026-04-20 01:27 | 35.65488 | -120.97719 | 37934 ft | 429 kts | 318° |
| 2026-04-20 01:28 | 35.70221 | -121.02125 | 37933 ft | 428 kts | 317° |
| 2026-04-20 01:28 | 35.72596 | -121.04340 | 37502 ft | 429 kts | 318° |
| 2026-04-20 01:28 | 35.74968 | -121.06553 | 36780 ft | 430 kts | 317° |
| 2026-04-20 01:29 | 35.77351 | -121.08780 | 36009 ft | 431 kts | 317° |
| 2026-04-20 01:29 | 35.79726 | -121.11002 | 35390 ft | 434 kts | 317° |
| 2026-04-20 01:29 | 35.82145 | -121.13267 | 34761 ft | 437 kts | 318° |
| 2026-04-20 01:29 | 35.84544 | -121.15514 | 34142 ft | 440 kts | 318° |
| 2026-04-20 01:30 | 35.86990 | -121.17806 | 33490 ft | 442 kts | 318° |
| 2026-04-20 01:30 | 35.89453 | -121.20114 | 32827 ft | 445 kts | 318° |
| 2026-04-20 01:30 | 35.91890 | -121.22402 | 32180 ft | 448 kts | 318° |
| 2026-04-20 01:30 | 35.94389 | -121.24751 | 31519 ft | 452 kts | 318° |
| 2026-04-20 01:31 | 35.96894 | -121.27106 | 30865 ft | 455 kts | 318° |
| 2026-04-20 01:31 | 35.99390 | -121.29452 | 30214 ft | 459 kts | 318° |
| 2026-04-20 01:31 | 36.01936 | -121.31849 | 29559 ft | 463 kts | 319° |
| 2026-04-20 01:31 | 36.04502 | -121.34267 | 28914 ft | 466 kts | 319° |
| 2026-04-20 01:32 | 36.07137 | -121.36640 | 28263 ft | 470 kts | 321° |
| 2026-04-20 01:32 | 36.09858 | -121.38841 | 27625 ft | 475 kts | 323° |
| 2026-04-20 01:32 | 36.12678 | -121.41048 | 26977 ft | 478 kts | 324° |
| 2026-04-20 01:32 | 36.15491 | -121.43234 | 26338 ft | 481 kts | 324° |
| 2026-04-20 01:33 | 36.18326 | -121.45438 | 25698 ft | 485 kts | 324° |
| 2026-04-20 01:33 | 36.21189 | -121.47669 | 25058 ft | 488 kts | 324° |
| 2026-04-20 01:33 | 36.24050 | -121.49902 | 24423 ft | 490 kts | 324° |
| 2026-04-20 01:33 | 36.26949 | -121.52168 | 23793 ft | 493 kts | 324° |
| 2026-04-20 01:34 | 36.29838 | -121.54430 | 23169 ft | 496 kts | 324° |
| 2026-04-20 01:34 | 36.32746 | -121.56710 | 22560 ft | 494 kts | 324° |
| 2026-04-20 01:34 | 36.35624 | -121.58966 | 22015 ft | 491 kts | 324° |
| 2026-04-20 01:34 | 36.38494 | -121.61221 | 21505 ft | 486 kts | 324° |
| 2026-04-20 01:35 | 36.41304 | -121.63429 | 20915 ft | 474 kts | 324° |
| 2026-04-20 01:35 | 36.44076 | -121.65610 | 20307 ft | 470 kts | 323° |
| 2026-04-20 01:35 | 36.46823 | -121.67776 | 19701 ft | 467 kts | 323° |
| 2026-04-20 01:35 | 36.49548 | -121.69926 | 19088 ft | 464 kts | 324° |
| 2026-04-20 01:36 | 36.52275 | -121.72079 | 18480 ft | 461 kts | 323° |
| 2026-04-20 01:36 | 36.54989 | -121.74222 | 17864 ft | 457 kts | 324° |
| 2026-04-20 01:36 | 36.57619 | -121.76300 | 17265 ft | 450 kts | 324° |
| 2026-04-20 01:36 | 36.60249 | -121.78381 | 16655 ft | 443 kts | 324° |
| 2026-04-20 01:37 | 36.62810 | -121.80410 | 16054 ft | 437 kts | 324° |
| 2026-04-20 01:37 | 36.65351 | -121.82426 | 15450 ft | 432 kts | 324° |
| 2026-04-20 01:37 | 36.67896 | -121.84448 | 14832 ft | 428 kts | 324° |
| 2026-04-20 01:37 | 36.70379 | -121.86421 | 14221 ft | 423 kts | 324° |
| 2026-04-20 01:38 | 36.72844 | -121.88322 | 13610 ft | 420 kts | 329° |
| 2026-04-20 01:38 | 36.75512 | -121.89777 | 12993 ft | 418 kts | 340° |
| 2026-04-20 01:38 | 36.78307 | -121.90710 | 12378 ft | 415 kts | 346° |
| 2026-04-20 01:38 | 36.81112 | -121.91469 | 11760 ft | 411 kts | 347° |
| 2026-04-20 01:39 | 36.83910 | -121.92202 | 11140 ft | 406 kts | 347° |
| 2026-04-20 01:39 | 36.86653 | -121.92935 | 10524 ft | 401 kts | 347° |
| 2026-04-20 01:39 | 36.89314 | -121.93665 | 10132 ft | 391 kts | 347° |
| 2026-04-20 01:39 | 36.91925 | -121.94390 | 10036 ft | 372 kts | 347° |
| 2026-04-20 01:40 | 36.94371 | -121.95079 | 10047 ft | 353 kts | 345° |
| 2026-04-20 01:40 | 36.96733 | -121.95894 | 10043 ft | 349 kts | 342° |
| 2026-04-20 01:40 | 36.98990 | -121.96762 | 10022 ft | 333 kts | 341° |
| 2026-04-20 01:40 | 37.01161 | -121.97614 | 10020 ft | 316 kts | 341° |
| 2026-04-20 01:41 | 37.03202 | -121.98418 | 10010 ft | 303 kts | 341° |
| 2026-04-20 01:41 | 37.05208 | -121.99206 | 9997 ft | 302 kts | 341° |
| 2026-04-20 01:41 | 37.07208 | -121.99992 | 10003 ft | 302 kts | 341° |
| 2026-04-20 01:41 | 37.09213 | -122.00777 | 9981 ft | 301 kts | 341° |
| 2026-04-20 01:42 | 37.11224 | -122.01565 | 9663 ft | 299 kts | 341° |
| 2026-04-20 01:42 | 37.13213 | -122.02345 | 9267 ft | 299 kts | 341° |
| 2026-04-20 01:42 | 37.15187 | -122.03120 | 8873 ft | 298 kts | 341° |
| 2026-04-20 01:42 | 37.17149 | -122.03889 | 8476 ft | 296 kts | 341° |
| 2026-04-20 01:43 | 37.19104 | -122.04655 | 8132 ft | 295 kts | 342° |
| 2026-04-20 01:43 | 37.21057 | -122.05420 | 8025 ft | 294 kts | 342° |
| 2026-04-20 01:43 | 37.23025 | -122.06190 | 8025 ft | 294 kts | 342° |
| 2026-04-20 01:43 | 37.24952 | -122.06945 | 7859 ft | 291 kts | 342° |
| 2026-04-20 01:44 | 37.26888 | -122.07705 | 7472 ft | 291 kts | 342° |
| 2026-04-20 01:44 | 37.28830 | -122.08468 | 7127 ft | 290 kts | 342° |
| 2026-04-20 01:44 | 37.30748 | -122.09225 | 6797 ft | 289 kts | 342° |
| 2026-04-20 01:44 | 37.32659 | -122.09979 | 6469 ft | 287 kts | 343° |
| 2026-04-20 01:45 | 37.34556 | -122.10726 | 6150 ft | 286 kts | 342° |
| 2026-04-20 01:45 | 37.36427 | -122.11462 | 6021 ft | 276 kts | 342° |
| 2026-04-20 01:45 | 37.38208 | -122.12136 | 6011 ft | 261 kts | 344° |
| 2026-04-20 01:45 | 37.39923 | -122.12730 | 5997 ft | 247 kts | 345° |
| 2026-04-20 01:46 | 37.41548 | -122.13283 | 5845 ft | 241 kts | 345° |
| 2026-04-20 01:46 | 37.43166 | -122.13833 | 5535 ft | 237 kts | 345° |
| 2026-04-20 01:46 | 37.44734 | -122.14366 | 5112 ft | 235 kts | 344° |
| 2026-04-20 01:46 | 37.46315 | -122.14897 | 4680 ft | 234 kts | 345° |
| 2026-04-20 01:47 | 37.47879 | -122.15411 | 4258 ft | 231 kts | 344° |
| 2026-04-20 01:47 | 37.49419 | -122.15915 | 3830 ft | 229 kts | 344° |
| 2026-04-20 01:47 | 37.50943 | -122.16415 | 3409 ft | 226 kts | 343° |
| 2026-04-20 01:47 | 37.52453 | -122.16913 | 3067 ft | 223 kts | 342° |
| 2026-04-20 01:48 | 37.53804 | -122.17803 | 2985 ft | 214 kts | 309° |
| 2026-04-20 01:48 | 37.54614 | -122.19280 | 2814 ft | 203 kts | 293° |
| 2026-04-20 01:48 | 37.55225 | -122.20881 | 2553 ft | 201 kts | 291° |
| 2026-04-20 01:48 | 37.55805 | -122.22421 | 2324 ft | 189 kts | 292° |
| 2026-04-20 01:49 | 37.56393 | -122.23888 | 2136 ft | 187 kts | 294° |
| 2026-04-20 01:49 | 37.56998 | -122.25343 | 1843 ft | 185 kts | 294° |
| 2026-04-20 01:49 | 37.57595 | -122.26743 | 1527 ft | 182 kts | 294° |
| 2026-04-20 01:49 | 37.58181 | -122.28140 | 1231 ft | 177 kts | 294° |
| 2026-04-20 01:50 | 37.58736 | -122.29467 | 956 ft | 168 kts | 294° |
| 2026-04-20 01:50 | 37.59271 | -122.30722 | 714 ft | 157 kts | 294° |
| 2026-04-20 01:50 | 37.59779 | -122.31930 | 541 ft | 152 kts | 295° |
| 2026-04-20 01:50 | 37.60265 | -122.33056 | 366 ft | 143 kts | 291° |
| 2026-04-20 01:51 | 37.60719 | -122.34195 | 233 ft | 150 kts | 289° |
| 2026-04-20 01:51 | 37.61197 | -122.35332 | 109 ft | 141 kts | 291° |
| 2026-04-20 01:51 | 37.61636 | -122.36358 | 23 ft | 123 kts | 289° |
| 2026-04-20 01:51 | 37.61906 | -122.37037 | 13 ft | 39 kts | 298° |
| 2026-04-20 01:52 | 37.62028 | -122.37334 | 15 ft | 36 kts | 296° |
| 2026-04-20 01:52 | 37.62136 | -122.37595 | 24 ft | 31 kts | 296° |
| 2026-04-20 01:52 | 37.62195 | -122.37850 | 28 ft | 28 kts | 279° |
| 2026-04-20 01:52 | 37.62219 | -122.38065 | 30 ft | 23 kts | 276° |
| 2026-04-20 01:53 | 37.62223 | -122.38269 | 30 ft | 23 kts | 265° |
| 2026-04-20 01:53 | 37.62215 | -122.38465 | 31 ft | 20 kts | 267° |
| 2026-04-20 01:53 | 37.62203 | -122.38593 | 31 ft | 11 kts | 253° |
| 2026-04-20 01:53 | 37.62142 | -122.38615 | 32 ft | 11 kts | 138° |
| 2026-04-20 01:54 | 37.62089 | -122.38538 | 31 ft | 12 kts | 158° |
| 2026-04-20 01:54 | 37.62031 | -122.38562 | 31 ft | 9 kts | 231° |
| 2026-04-20 01:54 | 37.62007 | -122.38620 | 32 ft | 5 kts | 271° |
| 2026-04-20 01:54 | 37.62018 | -122.38657 | 32 ft | 3 kts | 296° |
| 2026-04-20 01:55 | 37.62026 | -122.38676 | 31 ft | 0 kts | 296° |
| 2026-04-20 01:55 | 37.62026 | -122.38678 | 31 ft | 0 kts | 296° |